sensor_id;sensor_type;location;lat;lon;timestamp;pressure;altitude;pressure_sealevel;temperature;humidity
8366;BME280;4220;42.502;24.188;2023-01-31T00:01:11;94649.41;;;-0.89;100.00
8366;BME280;4220;42.502;24.188;2023-01-31T00:03:39;94652.03;;;-0.89;100.00
8366;BME280;4220;42.502;24.188;2023-01-31T00:06:12;94648.44;;;-0.88;100.00
8366;BME280;4220;42.502;24.188;2023-01-31T00:08:40;94651.84;;;-0.87;100.00
8366;BME280;4220;42.502;24.188;2023-01-31T00:11:07;94661.09;;;-0.93;100.00
8366;BME280;4220;42.502;24.188;2023-01-31T00:13:34;94637.53;;;-0.99;100.00
8366;BME280;4220;42.502;24.188;2023-01-31T00:16:03;94647.13;;;-0.92;100.00
8366;BME280;4220;42.502;24.188;2023-01-31T00:18:30;94655.59;;;-0.90;100.00
8366;BME280;4220;42.502;24.188;2023-01-31T00:20:57;94646.31;;;-0.92;100.00
8366;BME280;4220;42.502;24.188;2023-01-31T00:23:24;94645.50;;;-0.93;100.00
8366;BME280;4220;42.502;24.188;2023-01-31T00:25:51;94663.06;;;-0.95;100.00
8366;BME280;4220;42.502;24.188;2023-01-31T00:28:18;94661.28;;;-0.94;100.00
8366;BME280;4220;42.502;24.188;2023-01-31T00:30:44;94666.81;;;-0.89;100.00
8366;BME280;4220;42.502;24.188;2023-01-31T00:33:13;94668.09;;;-0.93;100.00
8366;BME280;4220;42.502;24.188;2023-01-31T00:35:39;94657.38;;;-0.82;100.00
8366;BME280;4220;42.502;24.188;2023-01-31T00:38:07;94660.63;;;-0.80;100.00
8366;BME280;4220;42.502;24.188;2023-01-31T00:40:33;94669.09;;;-0.78;100.00
8366;BME280;4220;42.502;24.188;2023-01-31T00:43:00;94652.31;;;-0.76;100.00
8366;BME280;4220;42.502;24.188;2023-01-31T00:45:27;94644.03;;;-0.71;100.00
8366;BME280;4220;42.502;24.188;2023-01-31T00:47:54;94645.47;;;-0.69;100.00
8366;BME280;4220;42.502;24.188;2023-01-31T00:50:22;94659.81;;;-0.64;100.00
8366;BME280;4220;42.502;24.188;2023-01-31T00:52:49;94645.81;;;-0.63;100.00
8366;BME280;4220;42.502;24.188;2023-01-31T00:55:16;94647.78;;;-0.57;100.00
8366;BME280;4220;42.502;24.188;2023-01-31T00:57:43;94660.78;;;-0.57;100.00
8366;BME280;4220;42.502;24.188;2023-01-31T01:00:11;94660.47;;;-0.54;100.00
8366;BME280;4220;42.502;24.188;2023-01-31T01:02:38;94649.56;;;-0.58;100.00
8366;BME280;4220;42.502;24.188;2023-01-31T01:05:06;94653.94;;;-0.58;100.00
8366;BME280;4220;42.502;24.188;2023-01-31T01:07:34;94646.94;;;-0.58;100.00
8366;BME280;4220;42.502;24.188;2023-01-31T01:10:01;94632.78;;;-0.63;100.00
8366;BME280;4220;42.502;24.188;2023-01-31T01:12:28;94641.59;;;-0.64;100.00
8366;BME280;4220;42.502;24.188;2023-01-31T01:14:55;94640.59;;;-0.63;100.00
8366;BME280;4220;42.502;24.188;2023-01-31T01:17:21;94633.47;;;-0.61;100.00
8366;BME280;4220;42.502;24.188;2023-01-31T01:19:48;94611.50;;;-0.67;100.00
8366;BME280;4220;42.502;24.188;2023-01-31T01:22:15;94614.88;;;-0.58;100.00
8366;BME280;4220;42.502;24.188;2023-01-31T01:24:44;94604.47;;;-0.58;100.00
8366;BME280;4220;42.502;24.188;2023-01-31T01:27:11;94612.28;;;-0.50;100.00
8366;BME280;4220;42.502;24.188;2023-01-31T01:29:39;94613.91;;;-0.49;100.00
8366;BME280;4220;42.502;24.188;2023-01-31T01:32:06;94615.19;;;-0.45;100.00
8366;BME280;4220;42.502;24.188;2023-01-31T01:34:33;94607.88;;;-0.50;100.00
8366;BME280;4220;42.502;24.188;2023-01-31T01:37:01;94606.88;;;-0.49;100.00
8366;BME280;4220;42.502;24.188;2023-01-31T01:39:34;94610.81;;;-0.45;100.00
8366;BME280;4220;42.502;24.188;2023-01-31T01:42:02;94606.06;;;-0.41;100.00
8366;BME280;4220;42.502;24.188;2023-01-31T01:44:45;94613.84;;;-0.33;100.00
8366;BME280;4220;42.502;24.188;2023-01-31T01:47:17;94613.22;;;-0.27;100.00
8366;BME280;4220;42.502;24.188;2023-01-31T01:49:47;94605.19;;;-0.18;100.00
8366;BME280;4220;42.502;24.188;2023-01-31T01:52:16;94603.03;;;-0.06;100.00
8366;BME280;4220;42.502;24.188;2023-01-31T01:54:45;94605.94;;;-0.01;100.00
8366;BME280;4220;42.502;24.188;2023-01-31T01:57:19;94573.09;;;-0.10;100.00
8366;BME280;4220;42.502;24.188;2023-01-31T01:59:52;94588.56;;;0.22;100.00
8366;BME280;4220;42.502;24.188;2023-01-31T02:02:20;94596.53;;;0.29;100.00
8366;BME280;4220;42.502;24.188;2023-01-31T02:04:49;94598.91;;;0.38;100.00
8366;BME280;4220;42.502;24.188;2023-01-31T02:07:17;94591.47;;;0.27;100.00
8366;BME280;4220;42.502;24.188;2023-01-31T02:09:49;94605.16;;;0.29;100.00
8366;BME280;4220;42.502;24.188;2023-01-31T02:12:20;94604.00;;;0.32;100.00
8366;BME280;4220;42.502;24.188;2023-01-31T02:14:48;94593.59;;;0.32;100.00
8366;BME280;4220;42.502;24.188;2023-01-31T02:17:17;94593.69;;;0.38;100.00
8366;BME280;4220;42.502;24.188;2023-01-31T02:19:59;94595.59;;;0.44;100.00
8366;BME280;4220;42.502;24.188;2023-01-31T02:22:32;94594.34;;;0.40;100.00
8366;BME280;4220;42.502;24.188;2023-01-31T02:28:56;94614.56;;;0.38;100.00
8366;BME280;4220;42.502;24.188;2023-01-31T02:31:59;94596.31;;;0.38;100.00
8366;BME280;4220;42.502;24.188;2023-01-31T02:34:36;94619.59;;;0.40;100.00
8366;BME280;4220;42.502;24.188;2023-01-31T02:37:15;94613.94;;;0.36;100.00
8366;BME280;4220;42.502;24.188;2023-01-31T02:39:53;94589.81;;;0.34;100.00
8366;BME280;4220;42.502;24.188;2023-01-31T02:42:28;94580.06;;;0.28;100.00
8366;BME280;4220;42.502;24.188;2023-01-31T02:45:05;94605.19;;;0.21;100.00
8366;BME280;4220;42.502;24.188;2023-01-31T02:47:42;94602.78;;;0.20;100.00
8366;BME280;4220;42.502;24.188;2023-01-31T02:50:20;94605.84;;;0.15;100.00
8366;BME280;4220;42.502;24.188;2023-01-31T02:52:53;94620.56;;;0.08;100.00
8366;BME280;4220;42.502;24.188;2023-01-31T02:55:27;94601.66;;;0.06;100.00
8366;BME280;4220;42.502;24.188;2023-01-31T02:58:15;94622.84;;;0.03;100.00
8366;BME280;4220;42.502;24.188;2023-01-31T03:00:44;94610.84;;;-0.06;100.00
8366;BME280;4220;42.502;24.188;2023-01-31T03:03:18;94597.19;;;-0.08;100.00
8366;BME280;4220;42.502;24.188;2023-01-31T03:06:08;94612.19;;;-0.10;100.00
8366;BME280;4220;42.502;24.188;2023-01-31T03:08:37;94601.13;;;-0.20;100.00
8366;BME280;4220;42.502;24.188;2023-01-31T03:11:06;94614.47;;;-0.15;100.00
8366;BME280;4220;42.502;24.188;2023-01-31T03:13:45;94600.31;;;-0.21;100.00
8366;BME280;4220;42.502;24.188;2023-01-31T03:16:21;94600.00;;;-0.34;100.00
8366;BME280;4220;42.502;24.188;2023-01-31T03:19:12;94611.69;;;-0.22;100.00
8366;BME280;4220;42.502;24.188;2023-01-31T03:21:46;94605.72;;;-0.30;100.00
8366;BME280;4220;42.502;24.188;2023-01-31T03:24:15;94615.81;;;-0.35;100.00
8366;BME280;4220;42.502;24.188;2023-01-31T03:26:44;94619.56;;;-0.38;100.00
8366;BME280;4220;42.502;24.188;2023-01-31T03:29:14;94630.66;;;-0.44;100.00
8366;BME280;4220;42.502;24.188;2023-01-31T03:31:46;94638.63;;;-0.45;100.00
8366;BME280;4220;42.502;24.188;2023-01-31T03:34:15;94647.75;;;-0.49;100.00
8366;BME280;4220;42.502;24.188;2023-01-31T03:36:51;94636.34;;;-0.48;100.00
8366;BME280;4220;42.502;24.188;2023-01-31T03:39:28;94624.47;;;-0.51;100.00
8366;BME280;4220;42.502;24.188;2023-01-31T03:42:00;94648.91;;;-0.60;100.00
8366;BME280;4220;42.502;24.188;2023-01-31T03:44:38;94621.72;;;-0.57;100.00
8366;BME280;4220;42.502;24.188;2023-01-31T03:47:12;94609.84;;;-0.60;100.00
8366;BME280;4220;42.502;24.188;2023-01-31T03:49:41;94641.91;;;-0.59;100.00
8366;BME280;4220;42.502;24.188;2023-01-31T03:52:11;94639.00;;;-0.64;100.00
8366;BME280;4220;42.502;24.188;2023-01-31T03:54:47;94655.56;;;-0.66;100.00
8366;BME280;4220;42.502;24.188;2023-01-31T03:57:18;94643.69;;;-0.68;100.00
8366;BME280;4220;42.502;24.188;2023-01-31T03:59:51;94637.22;;;-0.72;100.00
8366;BME280;4220;42.502;24.188;2023-01-31T04:02:22;94642.22;;;-0.79;100.00
8366;BME280;4220;42.502;24.188;2023-01-31T04:04:53;94646.66;;;-0.79;100.00
8366;BME280;4220;42.502;24.188;2023-01-31T04:07:23;94602.88;;;-1.08;100.00
8366;BME280;4220;42.502;24.188;2023-01-31T04:09:50;94628.91;;;-0.84;100.00
8366;BME280;4220;42.502;24.188;2023-01-31T04:12:17;94613.31;;;-0.84;100.00
8366;BME280;4220;42.502;24.188;2023-01-31T04:14:43;94622.72;;;-0.83;100.00
8366;BME280;4220;42.502;24.188;2023-01-31T04:17:10;94626.31;;;-0.84;100.00
8366;BME280;4220;42.502;24.188;2023-01-31T04:19:37;94632.00;;;-0.88;100.00
8366;BME280;4220;42.502;24.188;2023-01-31T04:22:04;94626.63;;;-0.87;100.00
8366;BME280;4220;42.502;24.188;2023-01-31T04:24:32;94594.91;;;-1.14;100.00
8366;BME280;4220;42.502;24.188;2023-01-31T04:26:59;94646.63;;;-0.87;100.00
8366;BME280;4220;42.502;24.188;2023-01-31T04:29:26;94677.22;;;-0.89;100.00
8366;BME280;4220;42.502;24.188;2023-01-31T04:31:53;94642.75;;;-0.91;100.00
8366;BME280;4220;42.502;24.188;2023-01-31T04:34:19;94663.56;;;-0.91;100.00
8366;BME280;4220;42.502;24.188;2023-01-31T04:36:46;94662.56;;;-0.90;100.00
8366;BME280;4220;42.502;24.188;2023-01-31T04:39:13;94676.09;;;-0.95;100.00
8366;BME280;4220;42.502;24.188;2023-01-31T04:41:42;94651.84;;;-0.95;100.00
8366;BME280;4220;42.502;24.188;2023-01-31T04:44:09;94592.16;;;-1.29;100.00
8366;BME280;4220;42.502;24.188;2023-01-31T04:46:36;94686.31;;;-0.93;100.00
8366;BME280;4220;42.502;24.188;2023-01-31T04:49:03;94647.44;;;-0.95;100.00
8366;BME280;4220;42.502;24.188;2023-01-31T04:51:30;94625.81;;;-1.11;100.00
8366;BME280;4220;42.502;24.188;2023-01-31T04:53:57;94666.16;;;-0.83;100.00
8366;BME280;4220;42.502;24.188;2023-01-31T04:56:24;94656.06;;;-0.78;100.00
8366;BME280;4220;42.502;24.188;2023-01-31T04:58:52;94648.75;;;-0.75;100.00
8366;BME280;4220;42.502;24.188;2023-01-31T05:01:19;94652.66;;;-0.71;100.00
8366;BME280;4220;42.502;24.188;2023-01-31T05:03:45;94648.75;;;-0.75;100.00
8366;BME280;4220;42.502;24.188;2023-01-31T05:06:12;94652.31;;;-0.76;100.00
8366;BME280;4220;42.502;24.188;2023-01-31T05:08:39;94721.31;;;-0.63;100.00
8366;BME280;4220;42.502;24.188;2023-01-31T05:11:07;94624.84;;;-0.86;100.00
8366;BME280;4220;42.502;24.188;2023-01-31T05:13:34;94661.28;;;-0.70;100.00
8366;BME280;4220;42.502;24.188;2023-01-31T05:16:05;94677.38;;;-0.58;100.00
8366;BME280;4220;42.502;24.188;2023-01-31T05:18:33;94679.34;;;-0.60;100.00
8366;BME280;4220;42.502;24.188;2023-01-31T05:21:00;94690.56;;;-0.60;100.00
8366;BME280;4220;42.502;24.188;2023-01-31T05:23:27;94655.91;;;-0.60;100.00
8366;BME280;4220;42.502;24.188;2023-01-31T05:25:54;94669.75;;;-0.60;100.00
8366;BME280;4220;42.502;24.188;2023-01-31T05:28:22;94677.88;;;-0.63;100.00
8366;BME280;4220;42.502;24.188;2023-01-31T05:30:50;94675.78;;;-0.59;100.00
8366;BME280;4220;42.502;24.188;2023-01-31T05:33:18;94697.25;;;-0.57;100.00
8366;BME280;4220;42.502;24.188;2023-01-31T05:35:46;94624.03;;;-0.87;100.00
8366;BME280;4220;42.502;24.188;2023-01-31T05:38:13;94660.66;;;-0.64;100.00
8366;BME280;4220;42.502;24.188;2023-01-31T05:40:40;94653.63;;;-0.63;100.00
8366;BME280;4220;42.502;24.188;2023-01-31T05:43:06;94641.75;;;-0.66;100.00
8366;BME280;4220;42.502;24.188;2023-01-31T05:45:33;94665.00;;;-0.56;100.00
8366;BME280;4220;42.502;24.188;2023-01-31T05:48:00;94666.81;;;-0.57;100.00
8366;BME280;4220;42.502;24.188;2023-01-31T05:50:28;94664.03;;;-0.55;100.00
8366;BME280;4220;42.502;24.188;2023-01-31T05:52:59;94672.50;;;-0.53;100.00
8366;BME280;4220;42.502;24.188;2023-01-31T05:55:27;94681.13;;;-0.53;100.00
8366;BME280;4220;42.502;24.188;2023-01-31T05:57:54;94636.25;;;-0.79;100.00
8366;BME280;4220;42.502;24.188;2023-01-31T06:00:22;94676.09;;;-0.54;100.00
8366;BME280;4220;42.502;24.188;2023-01-31T06:02:49;94681.63;;;-0.49;100.00
8366;BME280;4220;42.502;24.188;2023-01-31T06:05:16;94640.78;;;-0.73;100.00
8366;BME280;4220;42.502;24.188;2023-01-31T06:07:45;94684.88;;;-0.47;100.00
8366;BME280;4220;42.502;24.188;2023-01-31T06:10:11;94692.50;;;-0.46;100.00
8366;BME280;4220;42.502;24.188;2023-01-31T06:12:39;94716.59;;;-0.44;100.00
8366;BME280;4220;42.502;24.188;2023-01-31T06:15:07;94699.19;;;-0.35;100.00
8366;BME280;4220;42.502;24.188;2023-01-31T06:17:33;94683.22;;;-0.32;100.00
8366;BME280;4220;42.502;24.188;2023-01-31T06:20:00;94708.59;;;-0.34;100.00
8366;BME280;4220;42.502;24.188;2023-01-31T06:22:27;94715.47;;;-0.33;100.00
8366;BME280;4220;42.502;24.188;2023-01-31T06:24:55;94641.25;;;-0.78;100.00
8366;BME280;4220;42.502;24.188;2023-01-31T06:27:22;94723.28;;;-0.25;100.00
8366;BME280;4220;42.502;24.188;2023-01-31T06:29:49;94741.97;;;-0.22;100.00
8366;BME280;4220;42.502;24.188;2023-01-31T06:32:16;94734.03;;;-0.28;100.00
8366;BME280;4220;42.502;24.188;2023-01-31T06:34:43;94725.72;;;-0.40;100.00
8366;BME280;4220;42.502;24.188;2023-01-31T06:37:09;94760.56;;;-0.25;100.00
8366;BME280;4220;42.502;24.188;2023-01-31T06:39:36;94751.25;;;-0.19;100.00
8366;BME280;4220;42.502;24.188;2023-01-31T06:42:05;94760.88;;;-0.12;100.00
8366;BME280;4220;42.502;24.188;2023-01-31T06:44:32;94759.09;;;-0.11;100.00
8366;BME280;4220;42.502;24.188;2023-01-31T06:46:59;94769.34;;;-0.10;100.00
8366;BME280;4220;42.502;24.188;2023-01-31T06:49:25;94764.28;;;-0.03;100.00
8366;BME280;4220;42.502;24.188;2023-01-31T06:51:52;94776.34;;;-0.02;100.00
8366;BME280;4220;42.502;24.188;2023-01-31T06:54:19;94753.88;;;-0.03;100.00
8366;BME280;4220;42.502;24.188;2023-01-31T06:56:46;94783.81;;;0.01;100.00
8366;BME280;4220;42.502;24.188;2023-01-31T06:59:14;94765.25;;;0.04;100.00
8366;BME280;4220;42.502;24.188;2023-01-31T07:01:41;94775.84;;;0.03;100.00
8366;BME280;4220;42.502;24.188;2023-01-31T07:04:08;94773.06;;;0.04;100.00
8366;BME280;4220;42.502;24.188;2023-01-31T07:06:35;94776.66;;;0.03;100.00
8366;BME280;4220;42.502;24.188;2023-01-31T07:09:02;94772.44;;;0.02;100.00
8366;BME280;4220;42.502;24.188;2023-01-31T07:11:29;94787.06;;;0.11;100.00
8366;BME280;4220;42.502;24.188;2023-01-31T07:13:56;94794.56;;;0.14;100.00
8366;BME280;4220;42.502;24.188;2023-01-31T07:16:24;94787.72;;;0.13;100.00
8366;BME280;4220;42.502;24.188;2023-01-31T07:18:51;94791.97;;;0.14;100.00
8366;BME280;4220;42.502;24.188;2023-01-31T07:21:18;94795.72;;;0.20;100.00
8366;BME280;4220;42.502;24.188;2023-01-31T07:23:45;94801.72;;;0.20;100.00
8366;BME280;4220;42.502;24.188;2023-01-31T07:26:12;94794.72;;;0.29;100.00
8366;BME280;4220;42.502;24.188;2023-01-31T07:28:39;94808.22;;;0.32;100.00
8366;BME280;4220;42.502;24.188;2023-01-31T07:31:07;94808.06;;;0.34;100.00
8366;BME280;4220;42.502;24.188;2023-01-31T07:33:37;94819.66;;;0.31;100.00
8366;BME280;4220;42.502;24.188;2023-01-31T07:36:06;94816.03;;;0.32;100.00
8366;BME280;4220;42.502;24.188;2023-01-31T07:38:33;94824.88;;;0.31;100.00
8366;BME280;4220;42.502;24.188;2023-01-31T07:41:01;94842.13;;;0.32;100.00
8366;BME280;4220;42.502;24.188;2023-01-31T07:43:29;94815.25;;;0.32;100.00
8366;BME280;4220;42.502;24.188;2023-01-31T07:45:57;94841.47;;;0.38;100.00
8366;BME280;4220;42.502;24.188;2023-01-31T07:48:24;94828.75;;;0.43;100.00
8366;BME280;4220;42.502;24.188;2023-01-31T07:50:57;94817.63;;;0.49;100.00
8366;BME280;4220;42.502;24.188;2023-01-31T07:53:26;94819.09;;;0.60;100.00
8366;BME280;4220;42.502;24.188;2023-01-31T07:55:53;94819.41;;;0.65;100.00
8366;BME280;4220;42.502;24.188;2023-01-31T07:58:20;94817.28;;;0.69;100.00
8366;BME280;4220;42.502;24.188;2023-01-31T08:00:46;94820.53;;;0.62;100.00
8366;BME280;4220;42.502;24.188;2023-01-31T08:03:30;94849.25;;;0.71;100.00
8366;BME280;4220;42.502;24.188;2023-01-31T08:06:06;94819.19;;;0.75;100.00
8366;BME280;4220;42.502;24.188;2023-01-31T08:08:34;94817.75;;;0.72;100.00
8366;BME280;4220;42.502;24.188;2023-01-31T08:11:01;94805.81;;;0.78;100.00
8366;BME280;4220;42.502;24.188;2023-01-31T08:13:29;94850.97;;;0.86;100.00
8366;BME280;4220;42.502;24.188;2023-01-31T08:15:56;94846.25;;;0.90;100.00
8366;BME280;4220;42.502;24.188;2023-01-31T08:18:23;94845.56;;;0.96;100.00
8366;BME280;4220;42.502;24.188;2023-01-31T08:20:50;94824.69;;;0.96;100.00
8366;BME280;4220;42.502;24.188;2023-01-31T08:23:18;94855.34;;;1.02;100.00
8366;BME280;4220;42.502;24.188;2023-01-31T08:25:45;94824.31;;;1.07;100.00
8366;BME280;4220;42.502;24.188;2023-01-31T08:28:11;94814.69;;;1.07;100.00
8366;BME280;4220;42.502;24.188;2023-01-31T08:30:40;94827.03;;;1.13;100.00
8366;BME280;4220;42.502;24.188;2023-01-31T08:33:07;94824.91;;;1.17;100.00
8366;BME280;4220;42.502;24.188;2023-01-31T08:35:34;94832.41;;;1.20;100.00
8366;BME280;4220;42.502;24.188;2023-01-31T08:38:01;94817.06;;;1.17;100.00
8366;BME280;4220;42.502;24.188;2023-01-31T08:40:30;94812.78;;;1.24;100.00
8366;BME280;4220;42.502;24.188;2023-01-31T08:42:58;94834.63;;;1.31;100.00
8366;BME280;4220;42.502;24.188;2023-01-31T08:45:26;94867.09;;;1.37;100.00
8366;BME280;4220;42.502;24.188;2023-01-31T08:47:53;94851.25;;;1.38;100.00
8366;BME280;4220;42.502;24.188;2023-01-31T08:50:21;94835.72;;;1.45;100.00
8366;BME280;4220;42.502;24.188;2023-01-31T08:52:51;94804.00;;;1.25;100.00
8366;BME280;4220;42.502;24.188;2023-01-31T08:55:19;94851.03;;;1.48;100.00
8366;BME280;4220;42.502;24.188;2023-01-31T08:57:47;94828.72;;;1.37;100.00
8366;BME280;4220;42.502;24.188;2023-01-31T09:00:15;94836.31;;;1.55;100.00
8366;BME280;4220;42.502;24.188;2023-01-31T09:02:42;94867.59;;;1.63;100.00
8366;BME280;4220;42.502;24.188;2023-01-31T09:05:10;94826.41;;;1.65;100.00
8366;BME280;4220;42.502;24.188;2023-01-31T09:07:37;94828.13;;;1.80;100.00
8366;BME280;4220;42.502;24.188;2023-01-31T09:10:05;94790.88;;;1.56;100.00
8366;BME280;4220;42.502;24.188;2023-01-31T09:12:32;94839.69;;;1.86;100.00
8366;BME280;4220;42.502;24.188;2023-01-31T09:15:01;94840.13;;;1.89;100.00
8366;BME280;4220;42.502;24.188;2023-01-31T09:17:29;94843.34;;;1.99;100.00
8366;BME280;4220;42.502;24.188;2023-01-31T09:19:56;94835.38;;;1.93;100.00
8366;BME280;4220;42.502;24.188;2023-01-31T09:22:23;94835.19;;;1.94;100.00
8366;BME280;4220;42.502;24.188;2023-01-31T09:24:49;94835.34;;;2.01;100.00
8366;BME280;4220;42.502;24.188;2023-01-31T09:27:16;94834.28;;;1.87;100.00
8366;BME280;4220;42.502;24.188;2023-01-31T09:29:43;94834.56;;;1.92;100.00
8366;BME280;4220;42.502;24.188;2023-01-31T09:32:11;94830.56;;;2.05;100.00
8366;BME280;4220;42.502;24.188;2023-01-31T09:34:38;94843.22;;;2.16;100.00
8366;BME280;4220;42.502;24.188;2023-01-31T09:37:05;94850.34;;;2.22;100.00
8366;BME280;4220;42.502;24.188;2023-01-31T09:39:32;94832.63;;;2.32;100.00
8366;BME280;4220;42.502;24.188;2023-01-31T09:42:03;94832.06;;;2.36;100.00
8366;BME280;4220;42.502;24.188;2023-01-31T09:44:38;94825.59;;;2.47;100.00
8366;BME280;4220;42.502;24.188;2023-01-31T09:47:13;94838.06;;;2.45;100.00
8366;BME280;4220;42.502;24.188;2023-01-31T09:49:54;94830.66;;;2.48;100.00
8366;BME280;4220;42.502;24.188;2023-01-31T09:52:22;94831.94;;;2.52;100.00
8366;BME280;4220;42.502;24.188;2023-01-31T09:54:52;94825.69;;;2.53;100.00
8366;BME280;4220;42.502;24.188;2023-01-31T09:57:33;94841.69;;;2.58;100.00
8366;BME280;4220;42.502;24.188;2023-01-31T10:00:12;94816.94;;;2.61;100.00
8366;BME280;4220;42.502;24.188;2023-01-31T10:02:55;94802.59;;;2.72;100.00
8366;BME280;4220;42.502;24.188;2023-01-31T10:05:31;94817.69;;;2.84;100.00
8366;BME280;4220;42.502;24.188;2023-01-31T10:08:08;94796.19;;;2.74;100.00
8366;BME280;4220;42.502;24.188;2023-01-31T10:10:42;94772.09;;;2.64;100.00
8366;BME280;4220;42.502;24.188;2023-01-31T10:13:15;94805.69;;;2.90;100.00
8366;BME280;4220;42.502;24.188;2023-01-31T10:15:45;94806.03;;;3.01;100.00
8366;BME280;4220;42.502;24.188;2023-01-31T10:18:18;94790.25;;;2.95;100.00
8366;BME280;4220;42.502;24.188;2023-01-31T10:20:50;94794.09;;;3.13;100.00
8366;BME280;4220;42.502;24.188;2023-01-31T10:23:23;94817.75;;;3.20;100.00
8366;BME280;4220;42.502;24.188;2023-01-31T10:25:56;94806.22;;;3.14;100.00
8366;BME280;4220;42.502;24.188;2023-01-31T10:28:29;94795.34;;;3.17;100.00
8366;BME280;4220;42.502;24.188;2023-01-31T10:31:01;94766.41;;;2.90;100.00
8366;BME280;4220;42.502;24.188;2023-01-31T10:33:37;94787.97;;;3.06;100.00
8366;BME280;4220;42.502;24.188;2023-01-31T10:36:10;94793.56;;;3.03;100.00
8366;BME280;4220;42.502;24.188;2023-01-31T10:38:50;94784.72;;;3.04;100.00
8366;BME280;4220;42.502;24.188;2023-01-31T10:41:21;94797.63;;;3.06;100.00
8366;BME280;4220;42.502;24.188;2023-01-31T10:43:57;94748.97;;;2.82;100.00
8366;BME280;4220;42.502;24.188;2023-01-31T10:46:25;94734.72;;;2.70;100.00
8366;BME280;4220;42.502;24.188;2023-01-31T10:48:54;94766.03;;;2.93;100.00
8366;BME280;4220;42.502;24.188;2023-01-31T10:51:36;94745.22;;;3.06;100.00
8366;BME280;4220;42.502;24.188;2023-01-31T10:54:17;94778.38;;;3.13;100.00
8366;BME280;4220;42.502;24.188;2023-01-31T10:56:47;94770.47;;;2.92;100.00
8366;BME280;4220;42.502;24.188;2023-01-31T10:59:19;94733.38;;;2.16;100.00
8366;BME280;4220;42.502;24.188;2023-01-31T11:01:48;94761.88;;;2.25;100.00
8366;BME280;4220;42.502;24.188;2023-01-31T11:04:24;94755.47;;;2.28;100.00
8366;BME280;4220;42.502;24.188;2023-01-31T11:06:52;94756.66;;;2.40;100.00
8366;BME280;4220;42.502;24.188;2023-01-31T11:09:21;94748.00;;;2.54;100.00
8366;BME280;4220;42.502;24.188;2023-01-31T11:11:54;94724.34;;;2.47;100.00
8366;BME280;4220;42.502;24.188;2023-01-31T11:14:21;94749.97;;;2.81;100.00
8366;BME280;4220;42.502;24.188;2023-01-31T11:16:48;94750.69;;;2.90;100.00
8366;BME280;4220;42.502;24.188;2023-01-31T11:19:28;94745.53;;;2.96;100.00
8366;BME280;4220;42.502;24.188;2023-01-31T11:21:56;94750.00;;;3.02;100.00
8366;BME280;4220;42.502;24.188;2023-01-31T11:24:27;94732.84;;;3.00;100.00
8366;BME280;4220;42.502;24.188;2023-01-31T11:26:58;94752.53;;;3.10;100.00
8366;BME280;4220;42.502;24.188;2023-01-31T11:29:28;94756.16;;;3.09;100.00
8366;BME280;4220;42.502;24.188;2023-01-31T11:31:57;94755.06;;;3.18;100.00
8366;BME280;4220;42.502;24.188;2023-01-31T11:34:28;94763.44;;;3.28;100.00
8366;BME280;4220;42.502;24.188;2023-01-31T11:37:03;94759.63;;;3.31;100.00
8366;BME280;4220;42.502;24.188;2023-01-31T11:39:32;94750.75;;;3.32;100.00
8366;BME280;4220;42.502;24.188;2023-01-31T11:42:07;94739.28;;;3.33;100.00
8366;BME280;4220;42.502;24.188;2023-01-31T11:44:55;94749.16;;;3.31;100.00
8366;BME280;4220;42.502;24.188;2023-01-31T11:47:27;94753.47;;;3.39;100.00
8366;BME280;4220;42.502;24.188;2023-01-31T11:49:59;94759.59;;;3.46;100.00
8366;BME280;4220;42.502;24.188;2023-01-31T11:52:29;94753.59;;;3.52;100.00
8366;BME280;4220;42.502;24.188;2023-01-31T11:54:59;94750.81;;;3.53;100.00
8366;BME280;4220;42.502;24.188;2023-01-31T11:57:30;94761.91;;;3.55;100.00
8366;BME280;4220;42.502;24.188;2023-01-31T12:00:00;94763.69;;;3.34;100.00
8366;BME280;4220;42.502;24.188;2023-01-31T12:02:35;94758.75;;;3.24;100.00
8366;BME280;4220;42.502;24.188;2023-01-31T12:05:12;94759.53;;;3.24;100.00
8366;BME280;4220;42.502;24.188;2023-01-31T12:07:43;94767.03;;;3.27;100.00
8366;BME280;4220;42.502;24.188;2023-01-31T12:10:30;94758.47;;;3.34;100.00
8366;BME280;4220;42.502;24.188;2023-01-31T12:12:59;94727.72;;;3.06;100.00
8366;BME280;4220;42.502;24.188;2023-01-31T12:15:27;94757.06;;;3.38;100.00
8366;BME280;4220;42.502;24.188;2023-01-31T12:17:57;94766.28;;;3.48;100.00
8366;BME280;4220;42.502;24.188;2023-01-31T12:20:40;94755.47;;;3.58;100.00
8366;BME280;4220;42.502;24.188;2023-01-31T12:23:18;94745.47;;;3.47;100.00
8366;BME280;4220;42.502;24.188;2023-01-31T12:25:59;94771.59;;;3.76;100.00
8366;BME280;4220;42.502;24.188;2023-01-31T12:28:45;94760.97;;;4.05;100.00
8366;BME280;4220;42.502;24.188;2023-01-31T12:31:27;94756.88;;;4.24;100.00
8366;BME280;4220;42.502;24.188;2023-01-31T12:34:17;94765.56;;;4.03;100.00
8366;BME280;4220;42.502;24.188;2023-01-31T12:37:02;94765.63;;;4.10;100.00
8366;BME280;4220;42.502;24.188;2023-01-31T12:39:41;94766.03;;;4.34;100.00
8366;BME280;4220;42.502;24.188;2023-01-31T12:42:24;94775.97;;;4.18;100.00
8366;BME280;4220;42.502;24.188;2023-01-31T12:45:02;94768.19;;;4.24;100.00
8366;BME280;4220;42.502;24.188;2023-01-31T12:47:47;94771.03;;;4.29;100.00
8366;BME280;4220;42.502;24.188;2023-01-31T12:50:25;94759.53;;;4.30;100.00
8366;BME280;4220;42.502;24.188;2023-01-31T12:53:13;94777.69;;;4.59;100.00
8366;BME280;4220;42.502;24.188;2023-01-31T12:55:48;94795.41;;;4.44;100.00
8366;BME280;4220;42.502;24.188;2023-01-31T12:58:33;94792.56;;;3.97;100.00
8366;BME280;4220;42.502;24.188;2023-01-31T13:01:08;94771.84;;;3.60;100.00
8366;BME280;4220;42.502;24.188;2023-01-31T13:03:49;94796.09;;;3.83;100.00
8366;BME280;4220;42.502;24.188;2023-01-31T13:06:20;94796.09;;;3.83;100.00
8366;BME280;4220;42.502;24.188;2023-01-31T13:08:53;94816.22;;;4.04;100.00
8366;BME280;4220;42.502;24.188;2023-01-31T13:11:27;94812.75;;;3.96;100.00
8366;BME280;4220;42.502;24.188;2023-01-31T13:13:59;94809.56;;;3.80;100.00
8366;BME280;4220;42.502;24.188;2023-01-31T13:16:29;94825.91;;;3.82;100.00
8366;BME280;4220;42.502;24.188;2023-01-31T13:19:00;94824.59;;;3.71;100.00
8366;BME280;4220;42.502;24.188;2023-01-31T13:21:32;94822.63;;;3.73;100.00
8366;BME280;4220;42.502;24.188;2023-01-31T13:24:05;94824.22;;;3.53;100.00
8366;BME280;4220;42.502;24.188;2023-01-31T13:26:37;94825.31;;;3.29;100.00